sensor_id;sensor_type;location;lat;lon;timestamp;temperature;humidity
11569;DHT22;5840;46.894;15.542;2022-12-18T00:00:59;-0.90;99.90
11569;DHT22;5840;46.894;15.542;2022-12-18T00:03:26;-0.80;99.90
11569;DHT22;5840;46.894;15.542;2022-12-18T00:05:52;-0.90;99.90
11569;DHT22;5840;46.894;15.542;2022-12-18T00:08:19;-0.90;99.90
11569;DHT22;5840;46.894;15.542;2022-12-18T00:10:46;-0.90;99.90
11569;DHT22;5840;46.894;15.542;2022-12-18T00:13:14;-0.90;99.90
11569;DHT22;5840;46.894;15.542;2022-12-18T00:15:41;-0.90;99.90
11569;DHT22;5840;46.894;15.542;2022-12-18T00:18:09;-0.90;99.90
11569;DHT22;5840;46.894;15.542;2022-12-18T00:20:36;-0.90;99.90
11569;DHT22;5840;46.894;15.542;2022-12-18T00:23:03;-1.00;99.90
11569;DHT22;5840;46.894;15.542;2022-12-18T00:25:32;-1.00;99.90
11569;DHT22;5840;46.894;15.542;2022-12-18T00:27:59;-1.00;99.90
11569;DHT22;5840;46.894;15.542;2022-12-18T00:30:28;-1.10;99.90
11569;DHT22;5840;46.894;15.542;2022-12-18T00:32:55;-1.10;99.90
11569;DHT22;5840;46.894;15.542;2022-12-18T00:35:22;-1.10;99.90
11569;DHT22;5840;46.894;15.542;2022-12-18T00:37:49;-1.10;99.90
11569;DHT22;5840;46.894;15.542;2022-12-18T00:40:16;-1.10;99.90
11569;DHT22;5840;46.894;15.542;2022-12-18T00:42:43;-1.10;99.90
11569;DHT22;5840;46.894;15.542;2022-12-18T00:45:25;-1.10;99.90
11569;DHT22;5840;46.894;15.542;2022-12-18T00:47:56;-1.10;99.90
11569;DHT22;5840;46.894;15.542;2022-12-18T00:50:24;-1.10;99.90
11569;DHT22;5840;46.894;15.542;2022-12-18T00:52:51;-1.10;99.90
11569;DHT22;5840;46.894;15.542;2022-12-18T00:55:19;-1.20;99.90
11569;DHT22;5840;46.894;15.542;2022-12-18T00:57:46;-1.20;99.90
11569;DHT22;5840;46.894;15.542;2022-12-18T01:00:14;-1.30;99.90
11569;DHT22;5840;46.894;15.542;2022-12-18T01:02:41;-1.30;99.90
11569;DHT22;5840;46.894;15.542;2022-12-18T01:05:12;-1.30;99.90
11569;DHT22;5840;46.894;15.542;2022-12-18T01:07:39;-1.30;99.90
11569;DHT22;5840;46.894;15.542;2022-12-18T01:10:07;-1.30;99.90
11569;DHT22;5840;46.894;15.542;2022-12-18T01:12:34;-1.30;99.90
11569;DHT22;5840;46.894;15.542;2022-12-18T01:15:02;-1.30;99.90
11569;DHT22;5840;46.894;15.542;2022-12-18T01:17:29;-1.30;99.90
11569;DHT22;5840;46.894;15.542;2022-12-18T01:19:56;-1.30;99.90
11569;DHT22;5840;46.894;15.542;2022-12-18T01:22:24;-1.40;99.90
11569;DHT22;5840;46.894;15.542;2022-12-18T01:24:51;-1.40;99.90
11569;DHT22;5840;46.894;15.542;2022-12-18T01:27:18;-1.40;99.90
11569;DHT22;5840;46.894;15.542;2022-12-18T01:29:45;-1.40;99.90
11569;DHT22;5840;46.894;15.542;2022-12-18T01:32:12;-1.40;99.90
11569;DHT22;5840;46.894;15.542;2022-12-18T01:34:38;-1.40;99.90
11569;DHT22;5840;46.894;15.542;2022-12-18T01:37:05;-1.40;99.90
11569;DHT22;5840;46.894;15.542;2022-12-18T01:39:34;-1.50;99.90
11569;DHT22;5840;46.894;15.542;2022-12-18T01:42:02;-1.50;99.90
11569;DHT22;5840;46.894;15.542;2022-12-18T01:44:58;-1.50;99.90
11569;DHT22;5840;46.894;15.542;2022-12-18T01:47:28;-1.50;99.90
11569;DHT22;5840;46.894;15.542;2022-12-18T01:49:58;-1.50;99.90
11569;DHT22;5840;46.894;15.542;2022-12-18T01:52:28;-1.50;99.90
11569;DHT22;5840;46.894;15.542;2022-12-18T01:54:57;-1.50;99.90
11569;DHT22;5840;46.894;15.542;2022-12-18T01:57:25;-1.50;99.90
11569;DHT22;5840;46.894;15.542;2022-12-18T01:59:55;-1.50;99.90
11569;DHT22;5840;46.894;15.542;2022-12-18T02:02:22;-1.50;99.90
11569;DHT22;5840;46.894;15.542;2022-12-18T02:04:49;-1.50;99.90
11569;DHT22;5840;46.894;15.542;2022-12-18T02:07:21;-1.50;99.90
11569;DHT22;5840;46.894;15.542;2022-12-18T02:09:55;-1.50;99.90
11569;DHT22;5840;46.894;15.542;2022-12-18T02:12:25;-1.50;99.90
11569;DHT22;5840;46.894;15.542;2022-12-18T02:14:59;-1.50;99.90
11569;DHT22;5840;46.894;15.542;2022-12-18T02:17:30;-1.40;99.90
11569;DHT22;5840;46.894;15.542;2022-12-18T02:20:06;-1.40;99.90
11569;DHT22;5840;46.894;15.542;2022-12-18T02:22:42;-1.40;99.90
11569;DHT22;5840;46.894;15.542;2022-12-18T02:25:20;-1.40;99.90
11569;DHT22;5840;46.894;15.542;2022-12-18T02:27:52;-1.40;99.90
11569;DHT22;5840;46.894;15.542;2022-12-18T02:30:20;-1.40;99.90
11569;DHT22;5840;46.894;15.542;2022-12-18T02:32:50;-1.40;99.90
11569;DHT22;5840;46.894;15.542;2022-12-18T02:35:22;-1.40;99.90
11569;DHT22;5840;46.894;15.542;2022-12-18T02:37:51;-1.40;99.90
11569;DHT22;5840;46.894;15.542;2022-12-18T02:40:19;-1.40;99.90
11569;DHT22;5840;46.894;15.542;2022-12-18T02:42:47;-1.40;99.90
11569;DHT22;5840;46.894;15.542;2022-12-18T02:45:16;-1.40;99.90
11569;DHT22;5840;46.894;15.542;2022-12-18T02:47:47;-1.40;99.90
11569;DHT22;5840;46.894;15.542;2022-12-18T02:50:19;-1.40;99.90
11569;DHT22;5840;46.894;15.542;2022-12-18T02:52:55;-1.50;99.90
11569;DHT22;5840;46.894;15.542;2022-12-18T02:55:32;-1.50;99.90
11569;DHT22;5840;46.894;15.542;2022-12-18T02:58:04;-1.60;99.90
11569;DHT22;5840;46.894;15.542;2022-12-18T03:00:37;-1.60;99.90
11569;DHT22;5840;46.894;15.542;2022-12-18T03:03:10;-1.60;99.90
11569;DHT22;5840;46.894;15.542;2022-12-18T03:05:41;-1.60;99.90
11569;DHT22;5840;46.894;15.542;2022-12-18T03:08:14;-1.60;99.90
11569;DHT22;5840;46.894;15.542;2022-12-18T03:10:47;-1.60;99.90
11569;DHT22;5840;46.894;15.542;2022-12-18T03:13:21;-1.60;99.90
11569;DHT22;5840;46.894;15.542;2022-12-18T03:15:53;-1.60;99.90
11569;DHT22;5840;46.894;15.542;2022-12-18T03:18:23;-1.60;99.90
11569;DHT22;5840;46.894;15.542;2022-12-18T03:20:54;-1.60;99.90
11569;DHT22;5840;46.894;15.542;2022-12-18T03:23:25;-1.60;99.90
11569;DHT22;5840;46.894;15.542;2022-12-18T03:25:58;-1.60;99.90
11569;DHT22;5840;46.894;15.542;2022-12-18T03:28:30;-1.70;99.90
11569;DHT22;5840;46.894;15.542;2022-12-18T03:31:00;-1.70;99.90
11569;DHT22;5840;46.894;15.542;2022-12-18T03:33:31;-1.80;99.90
11569;DHT22;5840;46.894;15.542;2022-12-18T03:36:01;-1.80;99.90
11569;DHT22;5840;46.894;15.542;2022-12-18T03:38:28;-1.80;99.90
11569;DHT22;5840;46.894;15.542;2022-12-18T03:41:12;-1.90;99.90
11569;DHT22;5840;46.894;15.542;2022-12-18T03:43:47;-1.90;99.90
11569;DHT22;5840;46.894;15.542;2022-12-18T03:46:24;-1.90;99.90
11569;DHT22;5840;46.894;15.542;2022-12-18T03:48:58;-2.00;99.90
11569;DHT22;5840;46.894;15.542;2022-12-18T03:51:32;-2.00;99.90
11569;DHT22;5840;46.894;15.542;2022-12-18T03:54:04;-2.00;99.90
11569;DHT22;5840;46.894;15.542;2022-12-18T03:56:35;-2.00;99.90
11569;DHT22;5840;46.894;15.542;2022-12-18T03:59:04;-2.00;99.90
11569;DHT22;5840;46.894;15.542;2022-12-18T04:01:37;-2.00;99.90
11569;DHT22;5840;46.894;15.542;2022-12-18T04:04:06;-2.00;99.90
11569;DHT22;5840;46.894;15.542;2022-12-18T04:06:35;-2.00;99.90
11569;DHT22;5840;46.894;15.542;2022-12-18T04:09:03;-2.00;99.90
11569;DHT22;5840;46.894;15.542;2022-12-18T04:11:30;-2.00;99.90
11569;DHT22;5840;46.894;15.542;2022-12-18T04:13:58;-2.00;99.90
11569;DHT22;5840;46.894;15.542;2022-12-18T04:16:25;-2.00;99.90
11569;DHT22;5840;46.894;15.542;2022-12-18T04:18:54;-2.00;99.90
11569;DHT22;5840;46.894;15.542;2022-12-18T04:21:21;-2.00;99.90
11569;DHT22;5840;46.894;15.542;2022-12-18T04:23:48;-2.00;99.90
11569;DHT22;5840;46.894;15.542;2022-12-18T04:26:15;-1.90;99.90
11569;DHT22;5840;46.894;15.542;2022-12-18T04:28:42;-1.90;99.90
11569;DHT22;5840;46.894;15.542;2022-12-18T04:31:09;-2.00;99.90
11569;DHT22;5840;46.894;15.542;2022-12-18T04:33:36;-2.00;99.90
11569;DHT22;5840;46.894;15.542;2022-12-18T04:36:04;-2.00;99.90
11569;DHT22;5840;46.894;15.542;2022-12-18T04:38:31;-2.00;99.90
11569;DHT22;5840;46.894;15.542;2022-12-18T04:40:59;-2.00;99.90
11569;DHT22;5840;46.894;15.542;2022-12-18T04:43:25;-2.00;99.90
11569;DHT22;5840;46.894;15.542;2022-12-18T04:45:52;-2.00;99.90
11569;DHT22;5840;46.894;15.542;2022-12-18T04:48:20;-2.00;99.90
11569;DHT22;5840;46.894;15.542;2022-12-18T04:50:47;-2.00;99.90
11569;DHT22;5840;46.894;15.542;2022-12-18T04:53:16;-1.90;99.90
11569;DHT22;5840;46.894;15.542;2022-12-18T04:55:44;-1.90;99.90
11569;DHT22;5840;46.894;15.542;2022-12-18T04:58:11;-1.90;99.90
11569;DHT22;5840;46.894;15.542;2022-12-18T05:00:38;-1.90;99.90
11569;DHT22;5840;46.894;15.542;2022-12-18T05:03:05;-1.90;99.90
11569;DHT22;5840;46.894;15.542;2022-12-18T05:05:33;-1.90;99.90
11569;DHT22;5840;46.894;15.542;2022-12-18T05:08:00;-1.90;99.90
11569;DHT22;5840;46.894;15.542;2022-12-18T05:10:29;-1.90;99.90
11569;DHT22;5840;46.894;15.542;2022-12-18T05:12:55;-1.90;99.90
11569;DHT22;5840;46.894;15.542;2022-12-18T05:15:27;-1.90;99.90
11569;DHT22;5840;46.894;15.542;2022-12-18T05:17:54;-1.90;99.90
11569;DHT22;5840;46.894;15.542;2022-12-18T05:20:21;-1.90;99.90
11569;DHT22;5840;46.894;15.542;2022-12-18T05:22:48;-1.90;99.90
11569;DHT22;5840;46.894;15.542;2022-12-18T05:25:15;-1.90;99.90
11569;DHT22;5840;46.894;15.542;2022-12-18T05:27:43;-1.90;99.90
11569;DHT22;5840;46.894;15.542;2022-12-18T05:30:11;-1.90;99.90
11569;DHT22;5840;46.894;15.542;2022-12-18T05:32:38;-1.90;99.90
11569;DHT22;5840;46.894;15.542;2022-12-18T05:35:10;-1.90;99.90
11569;DHT22;5840;46.894;15.542;2022-12-18T05:37:37;-1.80;99.90
11569;DHT22;5840;46.894;15.542;2022-12-18T05:40:05;-1.80;99.90
11569;DHT22;5840;46.894;15.542;2022-12-18T05:42:32;-1.90;99.90
11569;DHT22;5840;46.894;15.542;2022-12-18T05:45:00;-1.90;99.90
11569;DHT22;5840;46.894;15.542;2022-12-18T05:47:28;-1.90;99.90
11569;DHT22;5840;46.894;15.542;2022-12-18T05:49:55;-2.00;99.90
11569;DHT22;5840;46.894;15.542;2022-12-18T05:52:23;-2.00;99.90
11569;DHT22;5840;46.894;15.542;2022-12-18T05:54:50;-2.00;99.90
11569;DHT22;5840;46.894;15.542;2022-12-18T05:57:16;-2.00;99.90
11569;DHT22;5840;46.894;15.542;2022-12-18T05:59:43;-1.90;99.90
11569;DHT22;5840;46.894;15.542;2022-12-18T06:02:11;-1.90;99.90
11569;DHT22;5840;46.894;15.542;2022-12-18T06:04:38;-1.90;99.90
11569;DHT22;5840;46.894;15.542;2022-12-18T06:07:05;-1.90;99.90
11569;DHT22;5840;46.894;15.542;2022-12-18T06:09:32;-1.90;99.90
11569;DHT22;5840;46.894;15.542;2022-12-18T06:11:59;-2.00;99.90
11569;DHT22;5840;46.894;15.542;2022-12-18T06:14:26;-2.00;99.90
11569;DHT22;5840;46.894;15.542;2022-12-18T06:16:53;-2.00;99.90
11569;DHT22;5840;46.894;15.542;2022-12-18T06:19:21;-2.00;99.90
11569;DHT22;5840;46.894;15.542;2022-12-18T06:21:48;-2.00;99.90
11569;DHT22;5840;46.894;15.542;2022-12-18T06:24:15;-2.00;99.90
11569;DHT22;5840;46.894;15.542;2022-12-18T06:26:42;-1.90;99.90
11569;DHT22;5840;46.894;15.542;2022-12-18T06:29:09;-1.90;99.90
11569;DHT22;5840;46.894;15.542;2022-12-18T06:31:36;-1.90;99.90
11569;DHT22;5840;46.894;15.542;2022-12-18T06:34:04;-1.90;99.90
11569;DHT22;5840;46.894;15.542;2022-12-18T06:36:32;-1.90;99.90
11569;DHT22;5840;46.894;15.542;2022-12-18T06:38:59;-1.90;99.90
11569;DHT22;5840;46.894;15.542;2022-12-18T06:41:26;-1.90;99.90
11569;DHT22;5840;46.894;15.542;2022-12-18T06:43:53;-1.90;99.90
11569;DHT22;5840;46.894;15.542;2022-12-18T06:46:20;-1.90;99.90
11569;DHT22;5840;46.894;15.542;2022-12-18T06:48:48;-2.00;99.90
11569;DHT22;5840;46.894;15.542;2022-12-18T06:51:19;-2.00;99.90
11569;DHT22;5840;46.894;15.542;2022-12-18T06:53:48;-2.00;99.90
11569;DHT22;5840;46.894;15.542;2022-12-18T06:56:15;-2.00;99.90
11569;DHT22;5840;46.894;15.542;2022-12-18T06:58:42;-2.00;99.90
11569;DHT22;5840;46.894;15.542;2022-12-18T07:01:10;-2.00;99.90
11569;DHT22;5840;46.894;15.542;2022-12-18T07:03:38;-2.00;99.90
11569;DHT22;5840;46.894;15.542;2022-12-18T07:06:06;-2.00;99.90
11569;DHT22;5840;46.894;15.542;2022-12-18T07:08:33;-2.00;99.90
11569;DHT22;5840;46.894;15.542;2022-12-18T07:11:04;-2.00;99.90
11569;DHT22;5840;46.894;15.542;2022-12-18T07:13:31;-2.10;99.90
11569;DHT22;5840;46.894;15.542;2022-12-18T07:16:04;-2.10;99.90
11569;DHT22;5840;46.894;15.542;2022-12-18T07:18:31;-2.10;99.90
11569;DHT22;5840;46.894;15.542;2022-12-18T07:20:59;-2.10;99.90
11569;DHT22;5840;46.894;15.542;2022-12-18T07:23:28;-2.10;99.90
11569;DHT22;5840;46.894;15.542;2022-12-18T07:25:55;-2.00;99.90
11569;DHT22;5840;46.894;15.542;2022-12-18T07:28:23;-2.00;99.90
11569;DHT22;5840;46.894;15.542;2022-12-18T07:30:50;-2.00;99.90
11569;DHT22;5840;46.894;15.542;2022-12-18T07:33:17;-2.00;99.90
11569;DHT22;5840;46.894;15.542;2022-12-18T07:35:44;-2.00;99.90
11569;DHT22;5840;46.894;15.542;2022-12-18T07:38:11;-2.00;99.90
11569;DHT22;5840;46.894;15.542;2022-12-18T07:40:38;-1.90;99.90
11569;DHT22;5840;46.894;15.542;2022-12-18T07:43:04;-2.00;99.90
11569;DHT22;5840;46.894;15.542;2022-12-18T07:45:33;-2.00;99.90
11569;DHT22;5840;46.894;15.542;2022-12-18T07:48:00;-2.00;99.90
11569;DHT22;5840;46.894;15.542;2022-12-18T07:50:26;-2.10;99.90
11569;DHT22;5840;46.894;15.542;2022-12-18T07:52:53;-2.10;99.90
11569;DHT22;5840;46.894;15.542;2022-12-18T07:55:20;-2.10;99.90
11569;DHT22;5840;46.894;15.542;2022-12-18T07:57:47;-2.10;99.90
11569;DHT22;5840;46.894;15.542;2022-12-18T08:00:15;-2.10;99.90
11569;DHT22;5840;46.894;15.542;2022-12-18T08:02:43;-2.10;99.90
11569;DHT22;5840;46.894;15.542;2022-12-18T08:05:10;-2.00;99.90
11569;DHT22;5840;46.894;15.542;2022-12-18T08:07:37;-2.00;99.90
11569;DHT22;5840;46.894;15.542;2022-12-18T08:10:04;-2.00;99.90
11569;DHT22;5840;46.894;15.542;2022-12-18T08:12:31;-2.00;99.90
11569;DHT22;5840;46.894;15.542;2022-12-18T08:14:58;-2.00;99.90
11569;DHT22;5840;46.894;15.542;2022-12-18T08:17:25;-2.00;99.90
11569;DHT22;5840;46.894;15.542;2022-12-18T08:19:53;-2.00;99.90
11569;DHT22;5840;46.894;15.542;2022-12-18T08:22:20;-2.00;99.90
11569;DHT22;5840;46.894;15.542;2022-12-18T08:24:47;-2.00;99.90
11569;DHT22;5840;46.894;15.542;2022-12-18T08:27:14;-2.00;99.90
11569;DHT22;5840;46.894;15.542;2022-12-18T08:29:41;-2.00;99.90
11569;DHT22;5840;46.894;15.542;2022-12-18T08:32:08;-1.90;99.90
11569;DHT22;5840;46.894;15.542;2022-12-18T08:34:35;-1.90;99.90
11569;DHT22;5840;46.894;15.542;2022-12-18T08:37:03;-1.90;99.90
11569;DHT22;5840;46.894;15.542;2022-12-18T08:39:30;-1.90;99.90
11569;DHT22;5840;46.894;15.542;2022-12-18T08:41:57;-1.90;99.90
11569;DHT22;5840;46.894;15.542;2022-12-18T08:44:41;-1.90;99.90
11569;DHT22;5840;46.894;15.542;2022-12-18T08:47:08;-1.90;99.90
11569;DHT22;5840;46.894;15.542;2022-12-18T08:49:35;-1.80;99.90
11569;DHT22;5840;46.894;15.542;2022-12-18T08:52:04;-1.90;99.90
11569;DHT22;5840;46.894;15.542;2022-12-18T08:54:31;-2.00;99.90
11569;DHT22;5840;46.894;15.542;2022-12-18T08:56:58;-2.00;99.90
11569;DHT22;5840;46.894;15.542;2022-12-18T08:59:25;-2.00;99.90
11569;DHT22;5840;46.894;15.542;2022-12-18T09:01:53;-2.00;99.90
11569;DHT22;5840;46.894;15.542;2022-12-18T09:04:20;-1.90;99.90
11569;DHT22;5840;46.894;15.542;2022-12-18T09:06:47;-1.90;99.90
11569;DHT22;5840;46.894;15.542;2022-12-18T09:09:16;-1.90;99.90
11569;DHT22;5840;46.894;15.542;2022-12-18T09:11:43;-1.90;99.90
11569;DHT22;5840;46.894;15.542;2022-12-18T09:14:10;-1.90;99.90
11569;DHT22;5840;46.894;15.542;2022-12-18T09:16:37;-1.90;99.90
11569;DHT22;5840;46.894;15.542;2022-12-18T09:19:04;-1.90;99.90
11569;DHT22;5840;46.894;15.542;2022-12-18T09:21:33;-1.90;99.90
11569;DHT22;5840;46.894;15.542;2022-12-18T09:24:05;-1.90;99.90
11569;DHT22;5840;46.894;15.542;2022-12-18T09:26:33;-1.90;99.90
11569;DHT22;5840;46.894;15.542;2022-12-18T09:29:00;-1.90;99.90
11569;DHT22;5840;46.894;15.542;2022-12-18T09:31:27;-1.80;99.90
11569;DHT22;5840;46.894;15.542;2022-12-18T09:33:55;-1.80;99.90
11569;DHT22;5840;46.894;15.542;2022-12-18T09:36:22;-1.80;99.90
11569;DHT22;5840;46.894;15.542;2022-12-18T09:38:49;-1.80;99.90
11569;DHT22;5840;46.894;15.542;2022-12-18T09:41:35;-1.80;99.90
11569;DHT22;5840;46.894;15.542;2022-12-18T09:44:13;-1.80;99.90
11569;DHT22;5840;46.894;15.542;2022-12-18T09:46:45;-1.80;99.90
11569;DHT22;5840;46.894;15.542;2022-12-18T09:49:17;-1.80;99.90
11569;DHT22;5840;46.894;15.542;2022-12-18T09:51:47;-1.80;99.90
11569;DHT22;5840;46.894;15.542;2022-12-18T09:54:20;-1.90;99.90
11569;DHT22;5840;46.894;15.542;2022-12-18T09:56:49;-1.90;99.90
11569;DHT22;5840;46.894;15.542;2022-12-18T09:59:21;-1.90;99.90
11569;DHT22;5840;46.894;15.542;2022-12-18T10:01:50;-1.80;99.90
11569;DHT22;5840;46.894;15.542;2022-12-18T10:04:17;-1.80;99.90
11569;DHT22;5840;46.894;15.542;2022-12-18T10:06:48;-1.80;99.90
11569;DHT22;5840;46.894;15.542;2022-12-18T10:09:27;-1.80;99.90
11569;DHT22;5840;46.894;15.542;2022-12-18T10:12:02;-1.70;99.90
11569;DHT22;5840;46.894;15.542;2022-12-18T10:14:40;-1.70;99.90
11569;DHT22;5840;46.894;15.542;2022-12-18T10:17:17;-1.70;99.90
11569;DHT22;5840;46.894;15.542;2022-12-18T10:19:52;-1.70;99.90
11569;DHT22;5840;46.894;15.542;2022-12-18T10:22:30;-1.70;99.90
11569;DHT22;5840;46.894;15.542;2022-12-18T10:25:03;-1.70;99.90
11569;DHT22;5840;46.894;15.542;2022-12-18T10:27:33;-1.70;99.90
11569;DHT22;5840;46.894;15.542;2022-12-18T10:30:04;-1.70;99.90
11569;DHT22;5840;46.894;15.542;2022-12-18T10:32:35;-1.70;99.90
11569;DHT22;5840;46.894;15.542;2022-12-18T10:35:02;-1.70;99.90
11569;DHT22;5840;46.894;15.542;2022-12-18T10:37:29;-1.70;99.90
11569;DHT22;5840;46.894;15.542;2022-12-18T10:40:09;-1.70;99.90
11569;DHT22;5840;46.894;15.542;2022-12-18T10:42:38;-1.70;99.90
11569;DHT22;5840;46.894;15.542;2022-12-18T10:45:10;-1.70;99.90
11569;DHT22;5840;46.894;15.542;2022-12-18T10:47:42;-1.60;99.90
11569;DHT22;5840;46.894;15.542;2022-12-18T10:50:19;-1.60;99.90
11569;DHT22;5840;46.894;15.542;2022-12-18T10:52:54;-1.60;99.90
11569;DHT22;5840;46.894;15.542;2022-12-18T10:55:21;-1.60;99.90
11569;DHT22;5840;46.894;15.542;2022-12-18T10:57:51;-1.50;99.90
11569;DHT22;5840;46.894;15.542;2022-12-18T11:00:26;-1.50;99.90
11569;DHT22;5840;46.894;15.542;2022-12-18T11:02:54;-1.50;99.90
11569;DHT22;5840;46.894;15.542;2022-12-18T11:05:27;-1.50;99.90
11569;DHT22;5840;46.894;15.542;2022-12-18T11:07:56;-1.50;99.90
11569;DHT22;5840;46.894;15.542;2022-12-18T11:10:28;-1.40;99.90
11569;DHT22;5840;46.894;15.542;2022-12-18T11:13:12;-1.30;99.90
11569;DHT22;5840;46.894;15.542;2022-12-18T11:15:42;-1.30;99.90
11569;DHT22;5840;46.894;15.542;2022-12-18T11:18:17;-1.30;99.90
11569;DHT22;5840;46.894;15.542;2022-12-18T11:20:51;-1.30;99.90
11569;DHT22;5840;46.894;15.542;2022-12-18T11:23:21;-1.30;99.90
11569;DHT22;5840;46.894;15.542;2022-12-18T11:25:55;-1.40;99.90
11569;DHT22;5840;46.894;15.542;2022-12-18T11:28:29;-1.40;99.90
11569;DHT22;5840;46.894;15.542;2022-12-18T11:31:20;-1.50;99.90
11569;DHT22;5840;46.894;15.542;2022-12-18T11:33:54;-1.50;99.90
11569;DHT22;5840;46.894;15.542;2022-12-18T11:36:23;-1.50;99.90
11569;DHT22;5840;46.894;15.542;2022-12-18T11:38:52;-1.40;99.90
11569;DHT22;5840;46.894;15.542;2022-12-18T11:41:25;-1.40;99.90
11569;DHT22;5840;46.894;15.542;2022-12-18T11:44:19;-1.40;99.90
11569;DHT22;5840;46.894;15.542;2022-12-18T11:46:55;-1.40;99.90
11569;DHT22;5840;46.894;15.542;2022-12-18T11:49:27;-1.40;99.90
11569;DHT22;5840;46.894;15.542;2022-12-18T11:51:59;-1.40;99.90
11569;DHT22;5840;46.894;15.542;2022-12-18T11:54:28;-1.40;99.90
11569;DHT22;5840;46.894;15.542;2022-12-18T11:57:01;-1.30;99.90
11569;DHT22;5840;46.894;15.542;2022-12-18T11:59:36;-1.30;99.90
11569;DHT22;5840;46.894;15.542;2022-12-18T12:02:17;-1.30;99.90
11569;DHT22;5840;46.894;15.542;2022-12-18T12:05:20;-1.30;99.90
11569;DHT22;5840;46.894;15.542;2022-12-18T12:07:56;-1.30;99.90
11569;DHT22;5840;46.894;15.542;2022-12-18T12:10:33;-1.30;99.90
11569;DHT22;5840;46.894;15.542;2022-12-18T12:13:15;-1.30;99.90
11569;DHT22;5840;46.894;15.542;2022-12-18T12:15:49;-1.30;99.90
11569;DHT22;5840;46.894;15.542;2022-12-18T12:18:25;-1.30;99.90
11569;DHT22;5840;46.894;15.542;2022-12-18T12:21:01;-1.30;99.90
11569;DHT22;5840;46.894;15.542;2022-12-18T12:23:37;-1.40;99.90
11569;DHT22;5840;46.894;15.542;2022-12-18T12:26:07;-1.40;99.90
11569;DHT22;5840;46.894;15.542;2022-12-18T12:28:51;-1.40;99.90
11569;DHT22;5840;46.894;15.542;2022-12-18T12:31:31;-1.40;99.90
11569;DHT22;5840;46.894;15.542;2022-12-18T12:34:07;-1.40;99.90
11569;DHT22;5840;46.894;15.542;2022-12-18T12:36:45;-1.40;99.90
11569;DHT22;5840;46.894;15.542;2022-12-18T12:39:18;-1.40;99.90
11569;DHT22;5840;46.894;15.542;2022-12-18T12:41:47;-1.40;99.90
11569;DHT22;5840;46.894;15.542;2022-12-18T12:44:43;-1.50;99.90
11569;DHT22;5840;46.894;15.542;2022-12-18T12:47:17;-1.50;99.90
11569;DHT22;5840;46.894;15.542;2022-12-18T12:49:46;-1.50;99.90
11569;DHT22;5840;46.894;15.542;2022-12-18T12:52:17;-1.60;99.90
11569;DHT22;5840;46.894;15.542;2022-12-18T12:54:45;-1.60;99.90
11569;DHT22;5840;46.894;15.542;2022-12-18T12:57:17;-1.60;99.90
11569;DHT22;5840;46.894;15.542;2022-12-18T12:59:52;-1.60;99.90
11569;DHT22;5840;46.894;15.542;2022-12-18T13:02:28;-1.60;99.90
11569;DHT22;5840;46.894;15.542;2022-12-18T13:05:01;-1.60;99.90
11569;DHT22;5840;46.894;15.542;2022-12-18T13:07:37;-1.60;99.90
11569;DHT22;5840;46.894;15.542;2022-12-18T13:10:22;-1.50;99.90
11569;DHT22;5840;46.894;15.542;2022-12-18T13:12:55;-1.50;99.90
11569;DHT22;5840;46.894;15.542;2022-12-18T13:15:23;-1.40;99.90
11569;DHT22;5840;46.894;15.542;2022-12-18T13:18:12;-1.40;99.90
11569;DHT22;5840;46.894;15.542;2022-12-18T13:20:42;-1.40;99.90
11569;DHT22;5840;46.894;15.542;2022-12-18T13:23:31;-1.50;99.90
11569;DHT22;5840;46.894;15.542;2022-12-18T13:26:00;-1.40;99.90
11569;DHT22;5840;46.894;15.542;2022-12-18T13:28:53;-1.40;99.90
11569;DHT22;5840;46.894;15.542;2022-12-18T13:34:35;-1.40;99.90
11569;DHT22;5840;46.894;15.542;2022-12-18T13:37:40;-1.30;99.90
11569;DHT22;5840;46.894;15.542;2022-12-18T13:40:53;-1.30;99.90
11569;DHT22;5840;46.894;15.542;2022-12-18T13:43:36;-1.30;99.90
11569;DHT22;5840;46.894;15.542;2022-12-18T13:46:19;-1.30;99.90
11569;DHT22;5840;46.894;15.542;2022-12-18T13:49:00;-1.30;99.90
11569;DHT22;5840;46.894;15.542;2022-12-18T13:51:29;-1.30;99.90
11569;DHT22;5840;46.894;15.542;2022-12-18T13:53:59;-1.20;99.90
11569;DHT22;5840;46.894;15.542;2022-12-18T13:56:30;-1.20;99.90
11569;DHT22;5840;46.894;15.542;2022-12-18T13:59:17;-1.20;99.90
11569;DHT22;5840;46.894;15.542;2022-12-18T14:01:48;-1.10;99.90
11569;DHT22;5840;46.894;15.542;2022-12-18T14:04:27;-1.10;99.90
11569;DHT22;5840;46.894;15.542;2022-12-18T14:06:57;-1.10;99.90
11569;DHT22;5840;46.894;15.542;2022-12-18T14:09:28;-1.10;99.90
11569;DHT22;5840;46.894;15.542;2022-12-18T14:11:56;-1.10;99.90
11569;DHT22;5840;46.894;15.542;2022-12-18T14:14:37;-1.10;99.90
11569;DHT22;5840;46.894;15.542;2022-12-18T14:17:10;-1.10;99.90
11569;DHT22;5840;46.894;15.542;2022-12-18T14:19:42;-1.10;99.90
11569;DHT22;5840;46.894;15.542;2022-12-18T14:22:15;-1.10;99.90
11569;DHT22;5840;46.894;15.542;2022-12-18T14:24:43;-1.10;99.90
11569;DHT22;5840;46.894;15.542;2022-12-18T14:27:21;-1.10;99.90
11569;DHT22;5840;46.894;15.542;2022-12-18T14:29:49;-1.10;99.90
11569;DHT22;5840;46.894;15.542;2022-12-18T14:32:18;-1.10;99.90
11569;DHT22;5840;46.894;15.542;2022-12-18T14:34:47;-1.10;99.90
11569;DHT22;5840;46.894;15.542;2022-12-18T14:37:15;-1.10;99.90
11569;DHT22;5840;46.894;15.542;2022-12-18T14:39:56;-1.10;99.90
11569;DHT22;5840;46.894;15.542;2022-12-18T14:42:24;-1.10;99.90
11569;DHT22;5840;46.894;15.542;2022-12-18T14:47:54;-1.10;99.90
11569;DHT22;5840;46.894;15.542;2022-12-18T14:50:21;-1.20;99.90
11569;DHT22;5840;46.894;15.542;2022-12-18T14:52:48;-1.20;99.90
11569;DHT22;5840;46.894;15.542;2022-12-18T14:55:16;-1.20;99.90
11569;DHT22;5840;46.894;15.542;2022-12-18T14:57:44;-1.20;99.90
11569;DHT22;5840;46.894;15.542;2022-12-18T15:00:16;-1.20;99.90
11569;DHT22;5840;46.894;15.542;2022-12-18T15:02:45;-1.20;99.90
11569;DHT22;5840;46.894;15.542;2022-12-18T15:05:23;-1.30;99.90
11569;DHT22;5840;46.894;15.542;2022-12-18T15:07:52;-1.30;99.90
11569;DHT22;5840;46.894;15.542;2022-12-18T15:10:21;-1.30;99.90
11569;DHT22;5840;46.894;15.542;2022-12-18T15:13:05;-1.30;99.90
11569;DHT22;5840;46.894;15.542;2022-12-18T15:15:48;-1.30;99.90
11569;DHT22;5840;46.894;15.542;2022-12-18T15:18:17;-1.30;99.90
11569;DHT22;5840;46.894;15.542;2022-12-18T15:20:49;-1.30;99.90
11569;DHT22;5840;46.894;15.542;2022-12-18T15:23:19;-1.30;99.90
11569;DHT22;5840;46.894;15.542;2022-12-18T15:25:49;-1.30;99.90
11569;DHT22;5840;46.894;15.542;2022-12-18T15:28:24;-1.30;99.90
11569;DHT22;5840;46.894;15.542;2022-12-18T15:31:21;-1.30;99.90
11569;DHT22;5840;46.894;15.542;2022-12-18T15:34:11;-1.30;99.90
11569;DHT22;5840;46.894;15.542;2022-12-18T15:36:41;-1.30;99.90
11569;DHT22;5840;46.894;15.542;2022-12-18T15:39:12;-1.30;99.90
11569;DHT22;5840;46.894;15.542;2022-12-18T15:41:41;-1.30;99.90
11569;DHT22;5840;46.894;15.542;2022-12-18T15:44:34;-1.30;99.90
11569;DHT22;5840;46.894;15.542;2022-12-18T15:47:00;-1.30;99.90
11569;DHT22;5840;46.894;15.542;2022-12-18T15:49:28;-1.20;99.90
11569;DHT22;5840;46.894;15.542;2022-12-18T15:51:59;-1.20;99.90
11569;DHT22;5840;46.894;15.542;2022-12-18T15:54:28;-1.20;99.90
11569;DHT22;5840;46.894;15.542;2022-12-18T15:57:13;-1.20;99.90
11569;DHT22;5840;46.894;15.542;2022-12-18T15:59:50;-1.10;99.90